createdAt,value
2023-03-17T00:00:21.084Z,73.88
2023-03-17T00:01:21.339Z,73.64
2023-03-17T00:02:21.124Z,73.68
2023-03-17T00:03:21.409Z,73.64
2023-03-17T00:04:41.172Z,73.47
2023-03-17T00:05:21.337Z,73.68
2023-03-17T00:06:21.099Z,73.57
2023-03-17T00:07:21.358Z,73.57
2023-03-17T00:08:21.104Z,73.57
2023-03-17T00:09:20.888Z,73.36
2023-03-17T00:10:21.095Z,73.57
2023-03-17T00:11:20.856Z,73.68
2023-03-17T00:12:21.135Z,73.78
2023-03-17T00:13:20.895Z,73.78
2023-03-17T00:14:41.145Z,73.98
2023-03-17T00:15:20.883Z,73.88
2023-03-17T00:16:21.176Z,73.68
2023-03-17T00:17:20.936Z,73.98
2023-03-17T00:18:21.163Z,73.88
2023-03-17T00:19:20.915Z,73.68
2023-03-17T00:20:21.152Z,73.57
2023-03-17T00:21:22.384Z,73.78
2023-03-17T00:22:21.704Z,73.88
2023-03-17T00:23:22.465Z,74.08
2023-03-17T00:24:40.788Z,74.19
2023-03-17T00:25:22.491Z,74.40
2023-03-17T00:26:21.502Z,74.60
2023-03-17T00:27:22.565Z,74.70
2023-03-17T00:28:21.698Z,75.01
2023-03-17T00:29:20.784Z,75.15
2023-03-17T00:30:22.471Z,75.35
2023-03-17T00:31:22.313Z,75.56
2023-03-17T00:32:21.974Z,75.25
2023-03-17T00:33:21.696Z,75.25
2023-03-17T00:34:40.754Z,75.25
2023-03-17T00:35:22.477Z,75.04
2023-03-17T00:36:21.477Z,75.15
2023-03-17T00:37:22.103Z,74.95
2023-03-17T00:38:22.375Z,74.95
2023-03-17T00:39:22.171Z,75.15
2023-03-17T00:40:22.457Z,74.84
2023-03-17T00:41:22.240Z,74.95
2023-03-17T00:42:22.007Z,74.95
2023-03-17T00:43:22.308Z,74.84
2023-03-17T00:44:40.636Z,74.84
2023-03-17T00:45:22.350Z,74.95
2023-03-17T00:46:21.384Z,75.04
2023-03-17T00:47:20.760Z,75.04
2023-03-17T00:48:22.375Z,75.46
2023-03-17T00:50:11.981Z,75.56
2023-03-17T00:51:11.682Z,75.59
2023-03-17T00:52:12.021Z,75.18
2023-03-17T00:53:11.686Z,75.59
2023-03-17T00:54:11.939Z,75.90
2023-03-17T00:55:11.680Z,75.49
2023-03-17T00:56:11.964Z,75.25
2023-03-17T00:57:11.725Z,75.15
2023-03-17T00:58:11.484Z,75.35
2023-03-17T00:59:33.397Z,75.46
2023-03-17T01:00:11.692Z,75.87
2023-03-17T01:01:11.484Z,75.46
2023-03-17T01:02:11.748Z,75.25
2023-03-17T01:03:11.436Z,75.46
2023-03-17T01:04:11.712Z,75.49
2023-03-17T01:05:11.441Z,75.29
2023-03-17T01:06:11.712Z,75.39
2023-03-17T01:07:11.437Z,75.39
2023-03-17T01:08:11.675Z,75.49
2023-03-17T01:09:32.162Z,75.70
2023-03-17T01:10:11.723Z,76.01
2023-03-17T01:11:11.469Z,76.11
2023-03-17T01:12:11.728Z,75.80
2023-03-17T01:13:11.473Z,75.70
2023-03-17T01:14:11.737Z,75.80
2023-03-17T01:15:11.477Z,75.80
2023-03-17T01:16:11.796Z,76.31
2023-03-17T01:17:11.477Z,76.21
2023-03-17T01:18:11.240Z,76.11
2023-03-17T01:19:32.247Z,76.45
2023-03-17T01:20:11.289Z,76.45
2023-03-17T01:21:11.532Z,76.56
2023-03-17T01:22:11.289Z,76.66
2023-03-17T01:23:11.522Z,76.45
2023-03-17T01:24:11.287Z,76.56
2023-03-17T01:25:11.508Z,76.66
2023-03-17T01:26:11.261Z,76.66
2023-03-17T01:27:11.473Z,76.66
2023-03-17T01:28:11.232Z,76.76
2023-03-17T01:29:32.512Z,76.76
2023-03-17T01:30:11.329Z,76.90
2023-03-17T01:31:11.597Z,76.90
2023-03-17T01:32:11.368Z,76.79
2023-03-17T01:33:11.139Z,76.79
2023-03-17T01:34:11.398Z,76.79
2023-03-17T01:35:11.131Z,77.00
2023-03-17T01:36:11.501Z,77.31
2023-03-17T01:37:11.145Z,77.42
2023-03-17T01:38:11.417Z,77.11
2023-03-17T01:39:31.202Z,77.11
2023-03-17T01:40:11.520Z,77.00
2023-03-17T01:41:11.319Z,76.79
2023-03-17T01:42:12.475Z,76.70
2023-03-17T01:43:11.729Z,77.00
2023-03-17T01:44:12.485Z,77.11
2023-03-17T01:45:12.746Z,77.31
2023-03-17T01:46:11.122Z,77.51
2023-03-17T01:47:12.798Z,77.31
2023-03-17T01:48:11.856Z,77.11
2023-03-17T01:49:31.415Z,77.72
2023-03-17T01:50:12.627Z,77.72
2023-03-17T01:51:12.369Z,77.72
2023-03-17T01:52:11.218Z,77.72
2023-03-17T01:53:10.975Z,77.72
2023-03-17T01:54:11.237Z,77.97
2023-03-17T01:55:11.009Z,77.97
2023-03-17T01:56:12.711Z,77.86
2023-03-17T01:57:11.038Z,78.17
2023-03-17T01:58:12.705Z,78.17
2023-03-17T01:59:31.019Z,78.38
2023-03-17T02:00:11.294Z,78.38
2023-03-17T02:01:11.769Z,78.69
2023-03-17T02:02:12.724Z,78.79
2023-03-17T02:03:11.052Z,78.72
2023-03-17T02:04:10.843Z,78.62
2023-03-17T02:05:12.520Z,78.83
2023-03-17T02:06:10.832Z,79.14
2023-03-17T02:07:11.131Z,79.03
2023-03-17T02:08:11.809Z,79.14
2023-03-17T02:09:32.131Z,79.14
2023-03-17T02:10:10.888Z,79.03
2023-03-17T02:11:11.120Z,79.03
2023-03-17T02:12:10.901Z,79.44
2023-03-17T02:13:11.177Z,79.24
2023-03-17T02:14:10.921Z,79.44
2023-03-17T02:15:10.663Z,79.24
2023-03-17T02:16:10.928Z,79.24
2023-03-17T02:17:10.653Z,79.65
2023-03-17T02:18:10.901Z,79.44
2023-03-17T02:19:31.188Z,79.34
2023-03-17T02:20:10.935Z,79.34
2023-03-17T02:21:10.685Z,79.14
2023-03-17T02:22:10.941Z,79.03
2023-03-17T02:23:11.692Z,79.34
2023-03-17T02:24:10.952Z,79.24
2023-03-17T02:25:10.711Z,79.03
2023-03-17T02:26:10.953Z,79.14
2023-03-17T02:27:10.704Z,79.24
2023-03-17T02:28:10.956Z,79.14
2023-03-17T02:29:30.734Z,79.34
2023-03-17T02:30:10.980Z,79.24
2023-03-17T02:31:10.807Z,79.34
2023-03-17T02:32:10.501Z,79.24
2023-03-17T02:33:10.753Z,79.55
2023-03-17T02:34:10.495Z,79.55
2023-03-17T02:35:10.734Z,79.03
2023-03-17T02:36:10.555Z,78.93
2023-03-17T02:37:10.794Z,79.14
2023-03-17T02:38:10.580Z,79.14
2023-03-17T02:39:30.862Z,79.14
2023-03-17T02:40:10.588Z,79.24
2023-03-17T02:41:10.847Z,79.34
2023-03-17T02:42:10.622Z,79.14
2023-03-17T02:43:10.834Z,79.03
2023-03-17T02:44:10.574Z,79.03
2023-03-17T02:45:10.844Z,79.24
2023-03-17T02:46:10.778Z,79.34
2023-03-17T02:47:10.344Z,78.93
2023-03-17T02:48:10.610Z,78.72
2023-03-17T02:49:30.504Z,79.24
2023-03-17T02:50:10.582Z,79.34
2023-03-17T02:51:10.336Z,79.03
2023-03-17T02:52:10.622Z,78.93
2023-03-17T02:53:10.354Z,79.14
2023-03-17T02:54:10.591Z,79.03
2023-03-17T02:55:10.354Z,78.93
2023-03-17T02:56:10.598Z,78.62
2023-03-17T02:57:10.326Z,78.62
2023-03-17T02:58:10.596Z,78.72
2023-03-17T02:59:30.362Z,78.72
2023-03-17T03:00:10.606Z,78.62
2023-03-17T03:01:10.392Z,78.31
2023-03-17T03:02:10.673Z,78.31
2023-03-17T03:03:10.442Z,78.38
2023-03-17T03:04:10.646Z,78.79
2023-03-17T03:05:10.392Z,77.80
2023-03-17T03:06:10.147Z,77.35
2023-03-17T03:07:10.376Z,77.35
2023-03-17T03:08:10.134Z,77.76
2023-03-17T03:09:30.394Z,77.97
2023-03-17T03:10:10.133Z,77.86
2023-03-17T03:11:10.363Z,77.45
2023-03-17T03:12:10.204Z,77.35
2023-03-17T03:13:10.362Z,77.66
2023-03-17T03:14:10.117Z,77.76
2023-03-17T03:15:10.375Z,78.17
2023-03-17T03:16:10.201Z,77.14
2023-03-17T03:17:10.455Z,77.14
2023-03-17T03:18:10.265Z,77.35
2023-03-17T03:19:30.526Z,77.35
2023-03-17T03:20:11.274Z,77.45
2023-03-17T03:21:10.086Z,77.55
2023-03-17T03:22:10.402Z,77.66
2023-03-17T03:23:10.141Z,77.86
2023-03-17T03:24:10.453Z,77.97
2023-03-17T03:25:10.210Z,77.55
2023-03-17T03:26:10.015Z,77.45
2023-03-17T03:27:10.266Z,77.90
2023-03-17T03:28:10.091Z,77.55
2023-03-17T03:29:30.346Z,77.55
2023-03-17T03:30:10.098Z,77.76
2023-03-17T03:31:10.473Z,78.00
2023-03-17T03:32:10.177Z,77.90
2023-03-17T03:33:09.938Z,78.11
2023-03-17T03:34:10.250Z,78.31
2023-03-17T03:35:10.055Z,78.41
2023-03-17T03:36:10.378Z,78.11
2023-03-17T03:37:10.090Z,77.69
2023-03-17T03:38:09.880Z,77.69
2023-03-17T03:39:30.325Z,77.48
2023-03-17T03:40:10.004Z,77.38
2023-03-17T03:41:10.266Z,78.00
2023-03-17T03:42:10.030Z,78.52
2023-03-17T03:43:21.849Z,78.31
2023-03-17T03:44:11.085Z,78.31
2023-03-17T03:45:09.851Z,78.11
2023-03-17T03:46:10.189Z,77.90
2023-03-17T03:47:09.932Z,78.11
2023-03-17T03:48:10.221Z,78.11
2023-03-17T03:49:30.028Z,78.11
2023-03-17T03:50:09.758Z,78.31
2023-03-17T03:51:10.068Z,78.41
2023-03-17T03:52:09.857Z,78.41
2023-03-17T03:53:10.135Z,78.62
2023-03-17T03:54:09.927Z,78.72
2023-03-17T03:55:10.723Z,78.62
2023-03-17T03:56:10.008Z,78.72
2023-03-17T03:57:09.754Z,78.93
2023-03-17T03:58:09.985Z,78.62
2023-03-17T03:59:29.744Z,78.83
2023-03-17T04:00:10.009Z,78.83
2023-03-17T04:01:09.751Z,78.55
2023-03-17T04:02:10.014Z,78.45
2023-03-17T04:03:09.768Z,78.66
2023-03-17T04:04:10.014Z,78.76
2023-03-17T04:05:09.769Z,79.17
2023-03-17T04:06:10.025Z,79.07
2023-03-17T04:07:09.769Z,79.07
2023-03-17T04:08:09.531Z,79.17
2023-03-17T04:09:29.796Z,79.31
2023-03-17T04:10:09.527Z,79.52
2023-03-17T04:11:09.792Z,80.14
2023-03-17T04:12:09.550Z,80.14
2023-03-17T04:13:09.804Z,80.34
2023-03-17T04:14:09.565Z,80.34
2023-03-17T04:15:09.806Z,80.24
2023-03-17T04:16:09.644Z,80.04
2023-03-17T04:17:09.832Z,80.24
2023-03-17T04:18:09.599Z,80.24
2023-03-17T04:19:29.860Z,80.04
2023-03-17T04:20:09.575Z,79.93
2023-03-17T04:21:09.818Z,80.14
2023-03-17T04:22:09.575Z,79.93
2023-03-17T04:23:09.801Z,79.83
2023-03-17T04:24:09.576Z,80.24
2023-03-17T04:25:09.325Z,80.24
2023-03-17T04:26:09.596Z,80.24
2023-03-17T04:27:09.317Z,80.24
2023-03-17T04:28:09.581Z,80.44
2023-03-17T04:29:29.333Z,80.34
2023-03-17T04:30:09.556Z,80.55
2023-03-17T04:31:09.306Z,80.34
2023-03-17T04:32:09.589Z,80.55
2023-03-17T04:33:09.359Z,80.44
2023-03-17T04:34:09.591Z,80.34
2023-03-17T04:35:09.335Z,80.34
2023-03-17T04:36:09.681Z,80.55
2023-03-17T04:37:09.325Z,80.04
2023-03-17T04:38:09.606Z,79.83
2023-03-17T04:39:29.336Z,79.72
2023-03-17T04:40:09.577Z,79.31
2023-03-17T04:41:09.333Z,79.41
2023-03-17T04:42:09.589Z,79.11
2023-03-17T04:43:09.357Z,79.00
2023-03-17T04:44:09.584Z,78.76
2023-03-17T04:45:09.341Z,79.17
2023-03-17T04:46:09.672Z,79.27
2023-03-17T04:47:09.330Z,79.27
2023-03-17T04:48:09.616Z,79.07
2023-03-17T04:49:29.856Z,79.07
2023-03-17T04:50:10.604Z,79.27
2023-03-17T04:51:11.650Z,79.07
2023-03-17T04:52:09.178Z,78.97
2023-03-17T04:53:09.427Z,79.17
2023-03-17T04:54:09.160Z,79.58
2023-03-17T04:55:09.434Z,79.27
2023-03-17T04:56:09.150Z,79.38
2023-03-17T04:57:10.392Z,79.48
2023-03-17T04:58:10.380Z,79.38
2023-03-17T04:59:29.430Z,79.69
2023-03-17T05:00:09.137Z,79.58
2023-03-17T05:01:09.420Z,79.58
2023-03-17T05:02:09.174Z,79.48
2023-03-17T05:03:25.755Z,78.86
2023-03-17T05:04:14.566Z,79.17
2023-03-17T05:05:10.414Z,79.17
2023-03-17T05:06:09.142Z,78.86
2023-03-17T05:07:09.009Z,78.76
2023-03-17T05:08:09.149Z,78.86
2023-03-17T05:09:29.421Z,78.76
2023-03-17T05:10:09.141Z,78.55
2023-03-17T05:11:09.904Z,79.07
2023-03-17T05:12:09.138Z,78.14
2023-03-17T05:13:08.894Z,78.45
2023-03-17T05:14:09.170Z,78.97
2023-03-17T05:15:08.892Z,78.86
2023-03-17T05:16:09.188Z,78.76
2023-03-17T05:17:08.888Z,79.17
2023-03-17T05:18:09.136Z,78.97
2023-03-17T05:19:28.939Z,79.38
2023-03-17T05:20:09.167Z,79.38
2023-03-17T05:21:08.896Z,79.48
2023-03-17T05:22:09.136Z,79.58
2023-03-17T05:23:09.739Z,79.69
2023-03-17T05:24:09.166Z,79.17
2023-03-17T05:25:08.898Z,79.17
2023-03-17T05:26:09.148Z,79.07
2023-03-17T05:27:08.912Z,78.97
2023-03-17T05:28:09.159Z,79.07
2023-03-17T05:29:28.949Z,78.66
2023-03-17T05:30:08.669Z,78.76
2023-03-17T05:31:10.979Z,78.66
2023-03-17T05:32:08.696Z,78.76
2023-03-17T05:33:08.961Z,78.45
2023-03-17T05:34:08.724Z,78.24
2023-03-17T05:35:08.967Z,78.24
2023-03-17T05:36:08.756Z,78.21
2023-03-17T05:37:08.968Z,78.41
2023-03-17T05:38:09.728Z,78.41
2023-03-17T05:39:28.987Z,78.21
2023-03-17T05:40:08.726Z,78.21
2023-03-17T05:41:08.958Z,78.41
2023-03-17T05:42:08.710Z,78.83
2023-03-17T05:43:08.963Z,78.31
2023-03-17T05:44:08.737Z,78.11
2023-03-17T05:45:08.983Z,78.93
2023-03-17T05:46:08.834Z,78.62
2023-03-17T05:47:09.007Z,78.62
2023-03-17T05:48:08.712Z,79.03
2023-03-17T05:49:29.003Z,79.14
2023-03-17T05:50:08.717Z,79.03
2023-03-17T05:51:08.501Z,78.72
2023-03-17T05:52:08.752Z,78.83
2023-03-17T05:53:08.509Z,78.83
2023-03-17T05:54:08.771Z,78.72
2023-03-17T05:55:08.550Z,79.14
2023-03-17T05:56:09.691Z,79.24
2023-03-17T05:57:08.511Z,79.24
2023-03-17T05:58:08.788Z,79.65
2023-03-17T05:59:28.518Z,79.55
2023-03-17T06:00:11.700Z,79.55
2023-03-17T06:01:09.482Z,79.27
2023-03-17T06:02:09.838Z,79.14
2023-03-17T06:03:09.529Z,78.62
2023-03-17T06:04:08.781Z,78.93
2023-03-17T06:05:09.505Z,78.31
2023-03-17T06:06:09.299Z,78.31
2023-03-17T06:07:09.510Z,78.41
2023-03-17T06:08:08.339Z,78.62
2023-03-17T06:09:28.591Z,78.52
2023-03-17T06:10:09.277Z,78.72
2023-03-17T06:11:08.575Z,78.62
2023-03-17T06:12:09.365Z,78.62
2023-03-17T06:13:08.594Z,78.62
2023-03-17T06:14:08.336Z,78.93
2023-03-17T06:15:08.611Z,79.24
2023-03-17T06:16:08.470Z,79.24
2023-03-17T06:17:08.632Z,79.03
2023-03-17T06:18:08.330Z,79.44
2023-03-17T06:19:28.614Z,79.34
2023-03-17T06:20:08.345Z,79.34
2023-03-17T06:21:09.583Z,79.03
2023-03-17T06:22:09.328Z,78.41
2023-03-17T06:23:09.076Z,78.11
2023-03-17T06:24:09.312Z,78.21
2023-03-17T06:25:09.090Z,78.48
2023-03-17T06:26:09.340Z,78.17
2023-03-17T06:27:09.223Z,78.48
2023-03-17T06:28:09.360Z,78.58
2023-03-17T06:29:28.539Z,78.58
2023-03-17T06:30:08.468Z,78.48
2023-03-17T06:31:09.292Z,78.69
2023-03-17T06:32:19.968Z,78.89
2023-03-17T06:33:09.416Z,78.79
2023-03-17T06:34:08.976Z,78.58
2023-03-17T06:35:09.219Z,78.55
2023-03-17T06:36:09.052Z,78.65
2023-03-17T06:37:09.246Z,78.96
2023-03-17T06:38:08.989Z,78.86
2023-03-17T06:39:28.311Z,78.55
2023-03-17T06:40:08.984Z,78.75
2023-03-17T06:41:09.239Z,78.96
2023-03-17T06:42:08.994Z,78.86
2023-03-17T06:43:09.260Z,78.96
2023-03-17T06:44:08.996Z,78.86
2023-03-17T06:45:09.257Z,78.72
2023-03-17T06:46:09.056Z,78.30
2023-03-17T06:47:09.251Z,78.00
2023-03-17T06:48:09.012Z,77.89
2023-03-17T06:49:28.339Z,78.00
2023-03-17T06:50:09.015Z,78.10
2023-03-17T06:51:09.289Z,78.30
2023-03-17T06:52:09.092Z,78.20
2023-03-17T06:53:08.809Z,78.47
2023-03-17T06:54:09.073Z,78.37
2023-03-17T06:55:08.818Z,78.17
2023-03-17T06:56:20.038Z,77.96
2023-03-17T06:57:08.917Z,77.34
2023-03-17T06:58:09.080Z,77.31
2023-03-17T06:59:27.902Z,77.31
2023-03-17T07:00:08.199Z,77.20
2023-03-17T07:01:08.980Z,77.20
2023-03-17T07:02:08.932Z,76.79
2023-03-17T07:03:08.972Z,77.10
2023-03-17T07:04:08.779Z,77.10
2023-03-17T07:05:08.045Z,76.69
2023-03-17T07:06:07.174Z,76.48
2023-03-17T07:07:08.164Z,76.28
2023-03-17T07:08:07.219Z,76.48
2023-03-17T07:09:27.192Z,76.65
2023-03-17T07:10:08.083Z,76.86
2023-03-17T07:11:07.351Z,76.04
2023-03-17T07:12:08.060Z,76.14
2023-03-17T07:13:08.107Z,75.83
2023-03-17T07:14:08.556Z,76.14
2023-03-17T07:15:07.330Z,76.45
2023-03-17T07:16:08.089Z,76.21
2023-03-17T07:17:08.635Z,76.00
2023-03-17T07:18:08.001Z,75.70
2023-03-17T07:19:27.118Z,74.87
2023-03-17T07:20:08.966Z,74.98
2023-03-17T07:21:08.772Z,74.77
2023-03-17T07:22:08.566Z,75.04
2023-03-17T07:23:09.819Z,75.04
2023-03-17T07:24:08.551Z,75.04
2023-03-17T07:25:10.341Z,74.49
2023-03-17T07:26:08.557Z,74.29
2023-03-17T07:27:08.847Z,73.88
2023-03-17T07:28:08.599Z,73.64
2023-03-17T07:29:27.882Z,73.95
2023-03-17T07:30:07.860Z,73.95
2023-03-17T07:31:09.713Z,73.23
2023-03-17T07:32:08.379Z,73.02
2023-03-17T07:33:08.649Z,72.92
2023-03-17T07:34:08.331Z,72.89
2023-03-17T07:35:09.594Z,73.30
2023-03-17T07:36:07.474Z,73.61
2023-03-17T07:37:08.637Z,73.91
2023-03-17T07:38:08.383Z,73.40
2023-03-17T07:39:29.249Z,73.61
2023-03-17T07:40:08.497Z,73.91
2023-03-17T07:41:08.310Z,73.61
2023-03-17T07:42:08.599Z,73.40
2023-03-17T07:43:08.298Z,72.89
2023-03-17T07:44:08.497Z,72.75
2023-03-17T07:45:08.276Z,72.96
2023-03-17T07:46:08.674Z,72.96
2023-03-17T07:47:08.400Z,72.34
2023-03-17T07:48:08.548Z,72.20
2023-03-17T07:49:40.820Z,72.41
2023-03-17T07:50:09.631Z,72.61
2023-03-17T07:51:08.373Z,72.72
2023-03-17T07:52:08.225Z,72.58
2023-03-17T07:53:08.513Z,71.15
2023-03-17T07:54:08.248Z,71.04
2023-03-17T07:55:08.577Z,70.74
2023-03-17T07:56:09.278Z,70.64
2023-03-17T07:57:09.236Z,71.15
2023-03-17T07:58:08.445Z,70.84
2023-03-17T07:59:27.257Z,71.12
2023-03-17T08:00:07.542Z,70.40
2023-03-17T08:01:08.363Z,70.71
2023-03-17T08:02:08.120Z,70.50
2023-03-17T08:03:10.792Z,70.06
2023-03-17T08:04:09.218Z,70.06
2023-03-17T08:05:07.504Z,69.55
2023-03-17T08:06:08.247Z,69.04
2023-03-17T08:07:08.510Z,69.42
2023-03-17T08:08:08.339Z,69.42
2023-03-17T08:09:27.226Z,69.11
2023-03-17T08:10:07.450Z,68.70
2023-03-17T08:11:08.180Z,68.80
2023-03-17T08:12:08.032Z,68.60
2023-03-17T08:13:08.192Z,68.66
2023-03-17T08:14:07.949Z,68.57
2023-03-17T08:15:08.220Z,68.77
2023-03-17T08:16:08.006Z,68.02
2023-03-17T08:17:08.353Z,68.33
2023-03-17T08:18:07.992Z,68.02
2023-03-17T08:19:27.305Z,68.09
2023-03-17T08:20:07.964Z,68.30
2023-03-17T08:21:08.235Z,67.04
2023-03-17T08:22:07.999Z,67.35
2023-03-17T08:23:08.259Z,66.33
2023-03-17T08:24:07.983Z,66.70
2023-03-17T08:25:08.384Z,67.79
2023-03-17T08:26:08.023Z,67.79
2023-03-17T08:27:08.260Z,66.54
2023-03-17T08:28:08.028Z,66.00
2023-03-17T08:29:27.372Z,65.86
2023-03-17T08:30:08.041Z,65.36
2023-03-17T08:31:10.263Z,65.12
2023-03-17T08:32:08.026Z,64.38
2023-03-17T08:33:07.822Z,62.85
2023-03-17T08:34:08.042Z,62.55
2023-03-17T08:35:08.215Z,62.62
2023-03-17T08:36:07.973Z,62.72
2023-03-17T08:37:10.164Z,61.81
2023-03-17T08:38:07.982Z,62.52
2023-03-17T08:39:26.806Z,62.21
2023-03-17T08:40:07.997Z,62.39
2023-03-17T08:41:07.766Z,61.78
2023-03-17T08:42:07.988Z,62.29
2023-03-17T08:43:07.778Z,61.37
2023-03-17T08:44:08.009Z,61.85
2023-03-17T08:45:07.129Z,61.52
2023-03-17T08:46:08.043Z,60.58
2023-03-17T08:47:07.783Z,60.75
2023-03-17T08:48:07.886Z,60.52
2023-03-17T08:49:26.731Z,59.27
2023-03-17T08:50:07.914Z,59.85
2023-03-17T08:51:07.547Z,58.74
2023-03-17T08:52:07.931Z,58.84
2023-03-17T08:53:07.670Z,58.84
2023-03-17T08:54:07.975Z,59.32
2023-03-17T08:55:07.688Z,58.71
2023-03-17T08:56:07.974Z,58.48
2023-03-17T08:57:07.796Z,56.86
2023-03-17T08:58:08.494Z,57.24
2023-03-17T08:59:26.830Z,56.33
2023-03-17T09:00:07.514Z,56.51
2023-03-17T09:01:07.769Z,56.81
2023-03-17T09:02:07.653Z,55.98
2023-03-17T09:03:07.785Z,54.53
2023-03-17T09:04:07.540Z,54.38
2023-03-17T09:05:08.777Z,53.55
2023-03-17T09:06:07.653Z,52.24
2023-03-17T09:07:09.690Z,51.31
2023-03-17T09:08:07.687Z,51.16
2023-03-17T09:09:26.937Z,49.93
2023-03-17T09:10:07.642Z,49.75
2023-03-17T09:11:07.492Z,50.70
2023-03-17T09:12:07.740Z,50.80
2023-03-17T09:13:07.489Z,50.80
2023-03-17T09:14:07.774Z,51.61
2023-03-17T09:15:07.520Z,51.79
2023-03-17T09:16:07.385Z,50.88
2023-03-17T09:17:07.531Z,49.95
2023-03-17T09:18:07.313Z,50.02
2023-03-17T09:19:26.612Z,50.83
2023-03-17T09:20:06.755Z,50.76
2023-03-17T09:21:07.509Z,52.37
2023-03-17T09:22:07.280Z,52.19
2023-03-17T09:23:07.544Z,52.62
2023-03-17T09:24:07.400Z,51.45
2023-03-17T09:25:07.591Z,52.09
2023-03-17T09:26:07.396Z,53.42
2023-03-17T09:27:07.650Z,53.55
2023-03-17T09:28:07.417Z,54.25
2023-03-17T09:29:26.762Z,54.56
2023-03-17T09:30:06.653Z,54.69
2023-03-17T09:31:07.383Z,55.07
2023-03-17T09:32:07.157Z,54.43
2023-03-17T09:33:07.413Z,54.31
2023-03-17T09:34:07.168Z,54.36
2023-03-17T09:35:07.417Z,53.27
2023-03-17T09:36:07.284Z,50.18
2023-03-17T09:37:07.458Z,48.05
2023-03-17T09:38:07.221Z,45.94
2023-03-17T09:39:26.543Z,44.25
2023-03-17T09:40:08.239Z,43.48
2023-03-17T09:41:07.492Z,43.57
2023-03-17T09:42:07.248Z,42.07
2023-03-17T09:43:07.017Z,43.54
2023-03-17T09:44:07.271Z,44.20
2023-03-17T09:45:06.464Z,45.04
2023-03-17T09:46:07.538Z,44.16
2023-03-17T09:47:07.004Z,45.10
2023-03-17T09:48:07.265Z,45.34
2023-03-17T09:49:26.098Z,47.67
2023-03-17T09:50:06.446Z,48.58
2023-03-17T09:51:07.212Z,48.58
2023-03-17T09:52:06.996Z,47.05
2023-03-17T09:53:07.211Z,47.11
2023-03-17T09:54:07.006Z,47.76
2023-03-17T09:55:07.233Z,44.70
2023-03-17T09:56:07.012Z,43.87
2023-03-17T09:57:07.262Z,42.61
2023-03-17T09:58:07.013Z,42.03
2023-03-17T09:59:26.323Z,40.50
2023-03-17T10:00:06.329Z,40.38
2023-03-17T10:01:07.075Z,39.07
2023-03-17T10:02:06.999Z,38.75
2023-03-17T10:03:07.105Z,38.37
2023-03-17T10:04:06.857Z,38.37
2023-03-17T10:05:07.134Z,38.97
2023-03-17T10:06:08.389Z,38.20
2023-03-17T10:07:07.132Z,39.29
2023-03-17T10:08:18.958Z,39.92
2023-03-17T10:09:27.343Z,40.89
2023-03-17T10:10:06.301Z,42.13
2023-03-17T10:11:06.111Z,43.27
2023-03-17T10:12:06.977Z,44.84
2023-03-17T10:13:07.070Z,44.68
2023-03-17T10:14:05.882Z,45.40
2023-03-17T10:15:07.103Z,45.75
2023-03-17T10:16:06.885Z,46.97
2023-03-17T10:17:06.183Z,45.95
2023-03-17T10:18:06.866Z,46.85
2023-03-17T10:19:26.220Z,46.73
2023-03-17T10:20:06.892Z,45.83
2023-03-17T10:21:05.694Z,46.30
2023-03-17T10:22:07.043Z,45.68
2023-03-17T10:23:06.643Z,45.18
2023-03-17T10:24:06.900Z,45.42
2023-03-17T10:25:06.660Z,46.45
2023-03-17T10:26:06.918Z,47.45
2023-03-17T10:27:06.737Z,47.65
2023-03-17T10:28:08.939Z,46.35
2023-03-17T10:29:25.775Z,46.37
2023-03-17T10:30:06.008Z,46.97
2023-03-17T10:31:06.814Z,47.25
2023-03-17T10:32:06.548Z,46.83
2023-03-17T10:33:06.942Z,46.11
2023-03-17T10:34:06.569Z,46.33
2023-03-17T10:35:06.805Z,47.03
2023-03-17T10:36:07.046Z,46.81
2023-03-17T10:37:06.881Z,45.78
2023-03-17T10:38:14.293Z,45.90
2023-03-17T10:39:27.027Z,46.16
2023-03-17T10:40:06.573Z,45.92
2023-03-17T10:41:06.819Z,44.89
2023-03-17T10:42:06.578Z,42.95
2023-03-17T10:43:06.810Z,43.11
2023-03-17T10:44:06.594Z,42.18
2023-03-17T10:45:06.842Z,42.29
2023-03-17T10:46:06.611Z,42.11
2023-03-17T10:47:06.453Z,42.43
2023-03-17T10:48:07.624Z,42.49
2023-03-17T10:49:25.453Z,42.43
2023-03-17T10:50:05.822Z,41.91
2023-03-17T10:51:06.567Z,41.09
2023-03-17T10:52:06.363Z,39.97
2023-03-17T10:53:06.642Z,39.61
2023-03-17T10:54:06.356Z,41.03
2023-03-17T10:55:06.615Z,40.50
2023-03-17T10:56:06.365Z,42.61
2023-03-17T10:57:06.633Z,43.75
2023-03-17T10:58:06.350Z,43.99
2023-03-17T10:59:25.778Z,44.79
2023-03-17T11:00:05.733Z,42.99
2023-03-17T11:01:06.498Z,44.79
2023-03-17T11:02:06.230Z,44.53
2023-03-17T11:03:06.489Z,41.89
2023-03-17T11:04:06.265Z,42.21
2023-03-17T11:05:39.051Z,41.55
2023-03-17T11:06:06.257Z,39.54
2023-03-17T11:07:06.558Z,40.20
2023-03-17T11:08:07.309Z,39.97
2023-03-17T11:09:25.665Z,38.74
2023-03-17T11:10:06.360Z,37.83
2023-03-17T11:11:06.625Z,37.41
2023-03-17T11:12:06.483Z,36.72
2023-03-17T11:13:06.167Z,35.61
2023-03-17T11:14:06.407Z,36.98
2023-03-17T11:15:06.154Z,36.08
2023-03-17T11:16:06.477Z,35.96
2023-03-17T11:17:06.306Z,35.27
2023-03-17T11:18:06.402Z,34.67
2023-03-17T11:19:25.215Z,35.43
2023-03-17T11:20:05.601Z,36.22
2023-03-17T11:21:06.313Z,34.34
2023-03-17T11:22:06.028Z,33.26
2023-03-17T11:23:08.867Z,33.65
2023-03-17T11:25:41.118Z,34.44
2023-03-17T11:25:47.415Z,34.53
2023-03-17T11:27:24.714Z,35.10
2023-03-17T11:27:47.453Z,33.31
2023-03-17T11:38:52.487Z,33.98
2023-03-17T11:40:50.154Z,31.74
2023-03-17T11:40:56.566Z,30.79
2023-03-17T11:42:21.839Z,32.34
2023-03-17T11:45:21.092Z,31.85
2023-03-17T11:45:25.911Z,32.15
2023-03-17T11:46:28.239Z,31.66
2023-03-17T11:48:09.101Z,32.64
2023-03-17T11:48:26.679Z,32.74
2023-03-17T11:50:05.258Z,31.63
2023-03-17T11:50:26.677Z,31.73
2023-03-17T11:51:47.134Z,31.74
2023-03-17T11:52:26.736Z,32.53
2023-03-17T11:53:26.464Z,31.28
2023-03-17T11:54:26.750Z,32.17
2023-03-17T11:55:26.487Z,31.57
2023-03-17T11:56:26.765Z,32.17
2023-03-17T11:57:26.491Z,32.26
2023-03-17T11:58:26.771Z,32.54
2023-03-17T11:59:26.530Z,32.56
2023-03-17T12:00:26.305Z,32.07
2023-03-17T12:01:47.131Z,32.87
2023-03-17T12:02:26.366Z,32.89
2023-03-17T12:03:26.729Z,33.41
2023-03-17T12:04:26.444Z,34.43
2023-03-17T12:05:26.647Z,35.15
2023-03-17T12:06:26.414Z,35.88
2023-03-17T12:07:26.662Z,35.49
2023-03-17T12:08:26.437Z,36.01
2023-03-17T12:09:28.188Z,36.74
2023-03-17T12:10:26.446Z,37.65
2023-03-17T12:11:47.758Z,38.18
2023-03-17T12:12:26.546Z,38.68
2023-03-17T12:13:26.297Z,37.51
2023-03-17T12:14:26.561Z,38.71
2023-03-17T12:15:26.332Z,38.90
2023-03-17T12:16:27.540Z,40.01
2023-03-17T12:17:27.354Z,39.33
2023-03-17T12:18:26.584Z,40.42
2023-03-17T12:19:26.308Z,39.73
2023-03-17T12:20:26.579Z,40.05
2023-03-17T12:21:47.817Z,40.94
2023-03-17T12:22:26.131Z,40.56
2023-03-17T12:23:26.382Z,41.28
2023-03-17T12:24:26.158Z,40.68
2023-03-17T12:25:26.404Z,41.39
2023-03-17T12:26:26.166Z,40.92
2023-03-17T12:27:26.403Z,42.43
2023-03-17T12:28:26.165Z,42.75
2023-03-17T12:29:26.406Z,42.95
2023-03-17T12:30:26.149Z,44.07
2023-03-17T12:31:47.150Z,43.97
2023-03-17T12:32:26.297Z,44.07
2023-03-17T12:33:25.985Z,44.17
2023-03-17T12:34:26.264Z,44.17
2023-03-17T12:35:26.043Z,44.27
2023-03-17T12:36:26.289Z,43.77
2023-03-17T12:37:26.030Z,44.27
2023-03-17T12:38:26.287Z,44.35
2023-03-17T12:39:26.031Z,44.65
2023-03-17T12:40:26.412Z,44.53
2023-03-17T12:41:47.527Z,42.61
2023-03-17T12:42:25.861Z,42.49
2023-03-17T12:43:26.122Z,42.37
2023-03-17T12:44:25.892Z,42.17
2023-03-17T12:45:26.149Z,41.46
2023-03-17T12:46:25.976Z,41.55
2023-03-17T12:47:26.145Z,43.74
2023-03-17T12:48:25.912Z,41.75
2023-03-17T12:49:26.169Z,41.47
2023-03-17T12:50:25.917Z,41.08
2023-03-17T12:51:46.899Z,42.59
2023-03-17T12:52:27.444Z,41.91
2023-03-17T12:53:25.795Z,43.21
2023-03-17T12:54:26.034Z,41.63
2023-03-17T12:55:25.791Z,42.05
2023-03-17T12:56:26.032Z,42.85
2023-03-17T12:57:25.788Z,42.97
2023-03-17T12:58:26.556Z,42.49
2023-03-17T12:59:25.812Z,43.39
2023-03-17T13:00:26.036Z,42.71
2023-03-17T13:01:47.365Z,45.23
2023-03-17T13:02:25.640Z,45.03
2023-03-17T13:03:25.941Z,44.25
2023-03-17T13:04:27.156Z,44.55
2023-03-17T13:05:25.896Z,44.65